Time;durP1;ratioP1;P1;durP2;ratioP2;P2;SDS_P1;SDS_P2;PMS_P1;PMS_P2;Temp;Humidity;BMP_temperature;BMP_pressure;BME280_temperature;BME280_humidity;BME280_pressure;Samples;Min_cycle;Max_cycle;Signal;HPM_P1;HPM_P2
2024/02/06 00:06:48;;;;;;;7.4;3.5;;;;;;;9.98;66.6;98090;;;;
2024/02/06 00:17:48;;;;;;;7.4;3.5;;;;;;;9.95;66.55;98083.333333333;;;;
2024/02/06 00:27:48;;;;;;;8;4.3;;;;;;;10;65.79;98080;;;;
2024/02/06 00:38:49;;;;;;;8;4.3;;;;;;;9.95;65.46;98085;;;;
2024/02/06 00:48:48;;;;;;;8;4.3;;;;;;;9.92;65.53;98085;;;;
2024/02/06 00:58:48;;;;;;;6.9;2.6;;;;;;;9.88;65.28;98078.333333333;;;;
2024/02/06 01:09:48;;;;;;;6.9;2.6;;;;;;;9.75;65.22;98078.333333333;;;;
2024/02/06 01:20:48;;;;;;;6.9;2.6;;;;;;;9.44;66.03;98070;;;;
2024/02/06 01:30:48;;;;;;;6.4;3.1;;;;;;;9.26;66.68;98070;;;;
2024/02/06 01:40:48;;;;;;;6.4;3.1;;;;;;;9.12;67.04;98060;;;;
2024/02/06 01:51:48;;;;;;;6.4;3.1;;;;;;;9;67.21;98045;;;;
2024/02/06 02:02:48;;;;;;;5.4;2.1;;;;;;;8.89;67.41;98038.333333333;;;;
2024/02/06 02:13:48;;;;;;;5.4;2.1;;;;;;;8.95;67.15;98033.333333333;;;;
2024/02/06 02:23:48;;;;;;;5.4;2.1;;;;;;;8.96;66.87;98030;;;;
2024/02/06 02:34:48;;;;;;;5.4;2.4;;;;;;;8.96;66.66;98030;;;;
2024/02/06 02:45:48;;;;;;;5.4;2.4;;;;;;;8.81;67.15;98038.333333333;;;;
2024/02/06 02:55:48;;;;;;;5.4;2.4;;;;;;;8.68;67.55;98038.333333333;;;;
2024/02/06 03:06:48;;;;;;;8.6;2.8;;;;;;;8.52;68.01;98026.666666667;;;;
2024/02/06 03:17:51;;;;;;;8.6;2.8;;;;;;;8.36;68.54;98021.666666667;;;;
2024/02/06 03:28:48;;;;;;;6.3;2.9;;;;;;;8.28;68.35;98018.333333333;;;;
2024/02/06 03:38:48;;;;;;;6.3;2.9;;;;;;;8.15;68.61;98020;;;;
2024/02/06 03:49:48;;;;;;;6.3;2.9;;;;;;;8.16;68.36;98016.666666667;;;;
2024/02/06 03:59:48;;;;;;;5.4;2.6;;;;;;;8.03;68.78;98016.666666667;;;;
2024/02/06 04:10:48;;;;;;;5.4;2.6;;;;;;;7.83;69.51;98020;;;;
2024/02/06 04:20:48;;;;;;;5.4;2.6;;;;;;;7.75;70.47;98018.333333333;;;;
2024/02/06 04:31:48;;;;;;;7;3;;;;;;;7.68;70.38;98023.333333333;;;;
2024/02/06 04:41:48;;;;;;;7;3;;;;;;;7.51;70.97;98030;;;;
2024/02/06 04:52:48;;;;;;;7;3;;;;;;;7.45;71.05;98030;;;;
2024/02/06 05:03:48;;;;;;;6.7;2.4;;;;;;;7.39;71.32;98018.333333333;;;;
2024/02/06 05:13:48;;;;;;;6.7;2.4;;;;;;;7.22;71.9;98021.666666667;;;;
2024/02/06 05:24:48;;;;;;;6.7;2.4;;;;;;;7.13;72.07;98028.333333333;;;;
2024/02/06 05:34:49;;;;;;;7.7;3.2;;;;;;;6.98;72.55;98028.333333333;;;;
2024/02/06 05:44:49;;;;;;;7.7;3.2;;;;;;;6.96;72.56;98031.666666667;;;;
2024/02/06 05:55:48;;;;;;;7.7;3.2;;;;;;;7.11;71.47;98028.333333333;;;;
2024/02/06 06:06:48;;;;;;;8.2;3.6;;;;;;;7.32;70.13;98028.333333333;;;;
2024/02/06 06:16:48;;;;;;;8.2;3.6;;;;;;;7.48;69.43;98030;;;;
2024/02/06 06:27:49;;;;;;;13.1;6.3;;;;;;;7.78;68.59;98046.666666667;;;;
2024/02/06 06:37:48;;;;;;;13.1;6.3;;;;;;;8.02;68.05;98041.666666667;;;;
2024/02/06 06:48:48;;;;;;;13.1;6.3;;;;;;;8.13;67.66;98046.666666667;;;;
2024/02/06 06:58:48;;;;;;;6.8;3.1;;;;;;;8.28;67.48;98058.333333333;;;;
2024/02/06 07:09:48;;;;;;;6.8;3.1;;;;;;;8.31;67.6;98061.666666667;;;;
2024/02/06 07:20:49;;;;;;;6.8;3.1;;;;;;;8.38;67.68;98061.666666667;;;;
2024/02/06 07:30:48;;;;;;;9.1;4.1;;;;;;;8.38;67.68;98070;;;;
2024/02/06 07:40:48;;;;;;;9.1;4.1;;;;;;;8.37;67.97;98081.666666667;;;;
2024/02/06 07:51:48;;;;;;;9.1;4.1;;;;;;;8.37;68.38;98088.333333333;;;;
2024/02/06 08:02:48;;;;;;;9.4;4.1;;;;;;;8.41;68.3;98098.333333333;;;;
2024/02/06 08:12:48;;;;;;;9.4;4.1;;;;;;;8.46;68.54;98098.333333333;;;;
2024/02/06 08:23:50;;;;;;;9.4;4.1;;;;;;;8.39;67.98;98095;;;;
2024/02/06 08:33:49;;;;;;;7.1;3.5;;;;;;;8.4;67.32;98096.666666667;;;;
2024/02/06 08:43:48;;;;;;;7.1;3.5;;;;;;;8.49;66.95;98101.666666667;;;;
2024/02/06 08:54:48;;;;;;;7.1;3.5;;;;;;;8.43;66.59;98101.666666667;;;;
2024/02/06 09:05:50;;;;;;;6.6;3.4;;;;;;;8.55;66.81;98101.666666667;;;;
2024/02/06 09:15:48;;;;;;;6.6;3.4;;;;;;;8.71;66.86;98108.333333333;;;;
2024/02/06 09:26:51;;;;;;;6.8;3.7;;;;;;;8.76;66.76;98116.666666667;;;;
2024/02/06 09:36:48;;;;;;;6.8;3.7;;;;;;;8.99;66.32;98115;;;;
2024/02/06 09:47:48;;;;;;;6.8;3.7;;;;;;;9.1;66.53;98126.666666667;;;;
2024/02/06 09:57:48;;;;;;;6.4;2.7;;;;;;;9.1;66.38;98135;;;;
2024/02/06 10:07:48;;;;;;;6.4;2.7;;;;;;;9.34;65.98;98110;;;;
2024/02/06 10:17:48;;;;;;;6.4;2.7;;;;;;;9.85;65.78;98120;;;;
2024/02/06 10:28:48;;;;;;;10;4.9;;;;;;;9.86;64.26;98100;;;;
2024/02/06 10:39:48;;;;;;;10;4.9;;;;;;;9.97;63.57;98098.333333333;;;;
2024/02/06 10:50:48;;;;;;;10;4.9;;;;;;;9.93;62.63;98083.333333333;;;;
2024/02/06 11:00:48;;;;;;;11;4.1;;;;;;;10.22;62.76;98083.333333333;;;;
2024/02/06 11:11:48;;;;;;;11;4.1;;;;;;;10.01;63.32;98073.333333333;;;;
2024/02/06 11:22:48;;;;;;;11;4.1;;;;;;;9.75;64.54;98050;;;;
2024/02/06 11:33:49;;;;;;;13.5;4.5;;;;;;;9.84;65.21;98043.333333333;;;;
2024/02/06 11:43:50;;;;;;;13.5;4.5;;;;;;;9.76;65.27;98050;;;;
2024/02/06 11:54:48;;;;;;;13.5;4.5;;;;;;;9.81;65;98050;;;;
2024/02/06 12:05:49;;;;;;;9.2;4.5;;;;;;;9.93;63.95;98040;;;;
2024/02/06 12:15:48;;;;;;;9.2;4.5;;;;;;;10.02;64.37;98021.666666667;;;;
2024/02/06 12:25:48;;;;;;;9.2;4.5;;;;;;;9.89;62.09;98008.333333333;;;;
2024/02/06 12:36:48;;;;;;;8;3.8;;;;;;;9.75;63.3;98010;;;;
2024/02/06 12:47:48;;;;;;;8;3.8;;;;;;;9.6;63.93;97996.666666667;;;;
2024/02/06 12:57:48;;;;;;;7.3;3.8;;;;;;;9.55;64.22;98006.666666667;;;;
2024/02/06 13:08:50;;;;;;;7.3;3.8;;;;;;;9.5;64.67;98000;;;;
2024/02/06 13:18:48;;;;;;;7.3;3.8;;;;;;;9.32;64.45;98005;;;;
2024/02/06 13:28:48;;;;;;;8.9;4.4;;;;;;;9.07;65.72;98000;;;;
2024/02/06 13:38:48;;;;;;;8.9;4.4;;;;;;;9.14;65.43;98006.666666667;;;;
2024/02/06 13:49:48;;;;;;;8.9;4.4;;;;;;;9.07;66.23;97996.666666667;;;;
2024/02/06 13:59:48;;;;;;;9.8;4.5;;;;;;;8.95;66.17;97990;;;;
2024/02/06 14:09:48;;;;;;;9.8;4.5;;;;;;;8.82;66.69;97991.666666667;;;;
2024/02/06 14:19:48;;;;;;;;;;;;;;;;;97981.666666667;;;;
2024/02/06 14:30:48;;;;;;;9.7;3.9;;;;;;;8.79;66.72;97983.333333333;;;;
2024/02/06 14:41:48;;;;;;;9.7;3.9;;;;;;;8.71;66.9;97978.333333333;;;;
2024/02/06 14:52:48;;;;;;;9.7;3.9;;;;;;;8.67;66.47;97965;;;;
2024/02/06 15:02:48;;;;;;;9.2;3.8;;;;;;;8.58;66.09;97960;;;;
2024/02/06 15:13:48;;;;;;;9.2;3.8;;;;;;;8.52;64.97;97950;;;;
2024/02/06 15:24:49;;;;;;;9.2;3.8;;;;;;;8.45;64.81;97941.666666667;;;;
2024/02/06 15:34:48;;;;;;;6.5;3.5;;;;;;;8.32;65;97931.666666667;;;;
2024/02/06 15:45:48;;;;;;;6.5;3.5;;;;;;;8.32;65.23;97930;;;;
2024/02/06 15:55:48;;;;;;;6.5;3.5;;;;;;;8.31;65.47;97938.333333333;;;;
2024/02/06 16:06:48;;;;;;;5.7;2.9;;;;;;;8.32;65.69;97943.333333333;;;;
2024/02/06 16:17:48;;;;;;;5.7;2.9;;;;;;;8.38;65.74;97940;;;;
2024/02/06 16:27:49;;;;;;;7.8;3.2;;;;;;;8.36;66.17;97941.666666667;;;;
2024/02/06 16:38:49;;;;;;;7.8;3.2;;;;;;;8.36;66.32;97941.666666667;;;;
2024/02/06 16:49:48;;;;;;;7.8;3.2;;;;;;;8.43;66.89;97951.666666667;;;;
2024/02/06 16:59:49;;;;;;;5;2.6;;;;;;;8.43;66.92;97950;;;;
2024/02/06 17:10:48;;;;;;;5;2.6;;;;;;;8.49;66.94;97946.666666667;;;;
2024/02/06 17:20:48;;;;;;;5;2.6;;;;;;;8.52;66.62;97945;;;;
2024/02/06 17:31:48;;;;;;;5.9;2.3;;;;;;;8.59;66.26;97933.333333333;;;;
2024/02/06 17:41:48;;;;;;;5.9;2.3;;;;;;;8.57;66.22;97916.666666667;;;;
2024/02/06 17:51:48;;;;;;;5.9;2.3;;;;;;;8.56;66.26;97916.666666667;;;;
2024/02/06 18:01:48;;;;;;;5.4;2.9;;;;;;;8.55;66.26;97906.666666667;;;;
2024/02/06 18:11:48;;;;;;;5.4;2.9;;;;;;;8.61;66.08;97903.333333333;;;;
2024/02/06 18:22:48;;;;;;;5.4;2.9;;;;;;;8.57;66.29;97905;;;;
2024/02/06 18:32:48;;;;;;;7.3;2.6;;;;;;;8.63;65.58;97896.666666667;;;;
2024/02/06 18:42:48;;;;;;;7.3;2.6;;;;;;;8.62;66.33;97865;;;;
2024/02/06 18:53:49;;;;;;;7.3;2.6;;;;;;;8.66;65.48;97851.666666667;;;;
2024/02/06 19:03:49;;;;;;;4.4;2.3;;;;;;;8.71;65.85;97853.333333333;;;;
2024/02/06 19:14:48;;;;;;;4.4;2.3;;;;;;;8.74;66.33;97853.333333333;;;;
2024/02/06 19:25:49;;;;;;;4.4;2.3;;;;;;;8.78;66.1;97846.666666667;;;;
2024/02/06 19:36:48;;;;;;;4.4;2.3;;;;;;;8.75;66.4;97831.666666667;;;;
2024/02/06 19:47:50;;;;;;;4.4;2.3;;;;;;;8.75;66.65;97828.333333333;;;;
2024/02/06 19:57:48;;;;;;;5.2;2.1;;;;;;;8.82;66.71;97810;;;;
2024/02/06 20:07:48;;;;;;;5.2;2.1;;;;;;;8.84;66.71;97798.333333333;;;;
2024/02/06 20:18:48;;;;;;;5.2;2.1;;;;;;;8.89;66.42;97790;;;;
2024/02/06 20:28:49;;;;;;;4.2;2.3;;;;;;;8.92;66.79;97773.333333333;;;;
2024/02/06 20:39:49;;;;;;;4.2;2.3;;;;;;;9.04;66.4;97761.666666667;;;;
2024/02/06 20:49:48;;;;;;;4.2;2.3;;;;;;;9.06;66.42;97755;;;;
2024/02/06 20:59:48;;;;;;;5.3;2.3;;;;;;;9.09;66.15;97740;;;;
2024/02/06 21:09:48;;;;;;;5.3;2.3;;;;;;;9.1;65.35;97725;;;;
2024/02/06 21:19:48;;;;;;;5.3;2.3;;;;;;;9.15;65.47;97721.666666667;;;;
2024/02/06 21:29:48;;;;;;;4.7;2.2;;;;;;;9.27;64.98;97721.666666667;;;;
2024/02/06 21:39:54;;;;;;;4.7;2.2;;;;;;;9.35;65.17;97710;;;;
2024/02/06 21:50:48;;;;;;;4.7;2.2;;;;;;;9.38;64.87;97706.666666667;;;;
2024/02/06 22:00:48;;;;;;;4.8;2.5;;;;;;;9.42;64.87;97705;;;;
2024/02/06 22:10:48;;;;;;;4.8;2.5;;;;;;;9.53;64.45;97696.666666667;;;;
2024/02/06 22:20:48;;;;;;;4.8;2.5;;;;;;;9.59;64.19;97691.666666667;;;;
2024/02/06 22:31:49;;;;;;;5.6;2.1;;;;;;;9.63;64.1;97680;;;;
2024/02/06 22:41:48;;;;;;;5.6;2.1;;;;;;;9.63;63.98;97656.666666667;;;;
2024/02/06 22:51:48;;;;;;;5.6;2.1;;;;;;;9.56;64.08;97641.666666667;;;;
2024/02/06 23:02:49;;;;;;;6.8;2.4;;;;;;;9.56;64.31;97638.333333333;;;;
2024/02/06 23:12:48;;;;;;;6.8;2.4;;;;;;;9.6;63.97;97618.333333333;;;;
2024/02/06 23:22:48;;;;;;;6.8;2.4;;;;;;;9.65;63.99;97625;;;;
2024/02/06 23:33:48;;;;;;;5.6;2.3;;;;;;;9.65;63.89;97611.666666667;;;;
2024/02/06 23:43:48;;;;;;;5.6;2.3;;;;;;;9.74;63.41;97596.666666667;;;;
2024/02/06 23:53:49;;;;;;;5.6;2.3;;;;;;;9.74;63.09;97586.666666667;;;;
